Time;durP1;ratioP1;P1;durP2;ratioP2;P2;SDS_P1;SDS_P2;PMS_P1;PMS_P2;Temp;Humidity;BMP_temperature;BMP_pressure;BME280_temperature;BME280_humidity;BME280_pressure;Samples;Min_cycle;Max_cycle;Signal;HPM_P1;HPM_P2
2023/01/21 00:00:31;;;;;;;;;;;1.20;52.40;;;;;;4949964;29;19919;-90
2023/01/21 00:02:57;;;;;;;;;;;1.10;52.30;;;;;;4956025;28;19926;-92
2023/01/21 00:05:22;;;;;;;;;;;1.10;52.30;;;;;;4949482;28;19918;-89
2023/01/21 00:07:48;;;;;;;;;;;1.00;52.40;;;;;;4943939;29;19930;-90
2023/01/21 00:10:14;;;;;;;;;;;1.10;52.60;;;;;;4953260;28;20325;-89
2023/01/21 00:12:40;;;;;;;;;;;1.00;52.50;;;;;;4954777;28;19970;-93
2023/01/21 00:15:05;;;;;;;;;;;1.00;52.70;;;;;;4953363;29;19925;-94
2023/01/21 00:17:35;;;;;;;;;;;1.10;52.70;;;;;;4949204;28;19926;-88
2023/01/21 00:20:01;;;;;;;;;;;1.10;52.50;;;;;;4934621;29;19911;-94
2023/01/21 00:22:26;;;;;;;;;;;1.00;52.40;;;;;;4938252;29;20417;-89
2023/01/21 00:24:52;;;;;;;;;;;1.00;52.40;;;;;;4936718;29;19918;-91
2023/01/21 00:27:18;;;;;;;;;;;1.00;52.30;;;;;;4950751;28;19967;-94
2023/01/21 00:29:43;;;;;;;;;;;1.00;52.40;;;;;;4944995;29;20432;-90
2023/01/21 00:32:09;;;;;;;;;;;1.00;52.60;;;;;;4956600;29;19922;-93
2023/01/21 00:34:35;;;;;;;;;;;1.00;52.70;;;;;;4954611;29;19914;-94
2023/01/21 00:37:00;;;;;;;;;;;1.10;52.70;;;;;;4956701;28;19919;-89
2023/01/21 00:39:26;;;;;;;;;;;1.10;52.90;;;;;;4956063;29;20004;-90
2023/01/21 00:41:52;;;;;;;;;;;1.20;53.20;;;;;;4954391;29;19950;-91
2023/01/21 00:44:18;;;;;;;;;;;1.30;53.40;;;;;;4959700;29;19910;-91
2023/01/21 00:46:44;;;;;;;;;;;1.30;53.60;;;;;;4953620;28;20021;-91
2023/01/21 00:49:09;;;;;;;;;;;1.40;53.70;;;;;;4938832;29;19966;-91
2023/01/21 00:51:35;;;;;;;;;;;1.50;53.70;;;;;;4944657;29;19922;-91
2023/01/21 00:54:01;;;;;;;;;;;1.50;53.40;;;;;;4941172;29;19911;-94
2023/01/21 00:56:27;;;;;;;;;;;1.50;53.00;;;;;;4940681;29;19926;-90
2023/01/21 00:58:52;;;;;;;;;;;1.40;52.60;;;;;;4939749;29;19914;-89
2023/01/21 01:01:18;;;;;;;;;;;1.40;52.40;;;;;;4937309;29;19923;-89
2023/01/21 01:03:45;;;;;;;;;;;1.30;52.40;;;;;;4938354;29;20402;-89
2023/01/21 01:06:21;;;;;;;;;;;1.40;52.70;;;;;;4940408;29;19915;-89
2023/01/21 01:08:48;;;;;;;;;;;1.40;52.80;;;;;;4937880;29;19910;-91
2023/01/21 01:11:14;;;;;;;;;;;1.40;52.70;;;;;;4937502;29;19915;-91
2023/01/21 01:13:40;;;;;;;;;;;1.40;52.60;;;;;;4938751;29;19917;-90
2023/01/21 01:16:05;;;;;;;;;;;1.30;52.30;;;;;;4939972;29;19962;-91
2023/01/21 01:18:32;;;;;;;;;;;1.30;52.00;;;;;;4937200;29;19958;-90
2023/01/21 01:20:58;;;;;;;;;;;1.20;51.80;;;;;;4941841;29;19917;-89
2023/01/21 01:23:23;;;;;;;;;;;1.10;51.90;;;;;;4943149;29;19910;-90
2023/01/21 01:26:00;;;;;;;;;;;1.00;52.00;;;;;;4958048;29;19953;-93
2023/01/21 01:28:27;;;;;;;;;;;1.10;52.00;;;;;;4957206;29;19923;-90
2023/01/21 01:30:52;;;;;;;;;;;1.00;51.90;;;;;;4956707;29;19919;-90
2023/01/21 01:33:18;;;;;;;;;;;1.00;51.90;;;;;;4958563;29;19926;-94
2023/01/21 01:35:46;;;;;;;;;;;0.90;52.00;;;;;;4955552;29;19918;-90
2023/01/21 01:38:12;;;;;;;;;;;0.90;52.00;;;;;;4960969;28;19970;-93
2023/01/21 01:40:39;;;;;;;;;;;0.80;51.90;;;;;;4962314;29;19982;-96
2023/01/21 01:43:21;;;;;;;;;;;0.80;51.90;;;;;;4956844;28;19923;-91
2023/01/21 01:45:47;;;;;;;;;;;0.80;51.80;;;;;;4958581;28;19925;-91
2023/01/21 01:48:19;;;;;;;;;;;0.70;51.80;;;;;;4958028;28;19918;-90
2023/01/21 01:50:46;;;;;;;;;;;0.70;51.70;;;;;;4958465;29;19919;-93
2023/01/21 01:53:12;;;;;;;;;;;0.70;51.70;;;;;;4957378;28;19926;-91
2023/01/21 01:55:38;;;;;;;;;;;0.60;51.70;;;;;;4958264;29;19910;-93
2023/01/21 01:58:05;;;;;;;;;;;0.60;51.50;;;;;;4958319;29;19925;-89
2023/01/21 02:00:31;;;;;;;;;;;0.60;51.50;;;;;;4956766;28;20305;-90
2023/01/21 02:05:41;;;;;;;;;;;0.50;51.70;;;;;;4957446;29;19974;-91
2023/01/21 02:08:07;;;;;;;;;;;0.50;51.80;;;;;;4955638;28;19963;-91
2023/01/21 02:10:33;;;;;;;;;;;0.50;51.90;;;;;;4954475;28;19985;-89
2023/01/21 02:12:59;;;;;;;;;;;0.50;51.80;;;;;;4959088;28;19918;-89
2023/01/21 02:15:27;;;;;;;;;;;0.50;51.70;;;;;;4958966;29;19910;-90
2023/01/21 02:18:00;;;;;;;;;;;0.50;51.70;;;;;;4955787;28;19923;-91
2023/01/21 02:20:25;;;;;;;;;;;0.50;51.70;;;;;;4957496;28;20001;-90
2023/01/21 02:22:51;;;;;;;;;;;0.40;51.50;;;;;;4961141;29;19950;-92
2023/01/21 02:25:16;;;;;;;;;;;0.40;51.50;;;;;;4958042;29;19910;-91
2023/01/21 02:27:51;;;;;;;;;;;0.40;52.00;;;;;;4958763;29;20750;-90
2023/01/21 02:30:36;;;;;;;;;;;0.50;52.30;;;;;;4955224;28;20433;-90
2023/01/21 02:33:21;;;;;;;;;;;0.50;52.50;;;;;;4956182;29;19918;-90
2023/01/21 02:36:09;;;;;;;;;;;0.50;52.60;;;;;;4952825;29;19957;-90
2023/01/21 02:38:46;;;;;;;;;;;0.50;52.80;;;;;;4959041;28;19922;-90
2023/01/21 02:41:34;;;;;;;;;;;0.50;52.90;;;;;;4953996;29;19957;-89
2023/01/21 02:44:06;;;;;;;;;;;0.60;53.50;;;;;;4953941;29;19922;-93
2023/01/21 02:46:35;;;;;;;;;;;0.60;53.90;;;;;;4957790;28;19923;-93
2023/01/21 02:49:21;;;;;;;;;;;0.70;53.90;;;;;;4957620;29;19915;-87
2023/01/21 02:51:47;;;;;;;;;;;0.70;53.70;;;;;;4953166;29;20681;-89
2023/01/21 02:54:32;;;;;;;;;;;0.70;53.50;;;;;;4958531;28;20274;-91
2023/01/21 02:56:58;;;;;;;;;;;0.70;53.30;;;;;;4956710;29;19918;-90
2023/01/21 02:59:23;;;;;;;;;;;0.70;53.10;;;;;;4953859;29;19917;-93
2023/01/21 03:02:06;;;;;;;;;;;0.70;53.20;;;;;;4955013;29;19918;-90
2023/01/21 03:04:38;;;;;;;;;;;0.70;53.30;;;;;;4952819;29;19917;-90
2023/01/21 03:07:22;;;;;;;;;;;0.70;53.50;;;;;;4954205;28;19919;-90
2023/01/21 03:09:48;;;;;;;;;;;0.70;53.30;;;;;;4952678;29;20366;-93
2023/01/21 03:12:23;;;;;;;;;;;0.70;53.20;;;;;;4953921;28;19926;-89
2023/01/21 03:17:54;;;;;;;;;;;0.70;53.30;;;;;;4955265;29;20437;-89
2023/01/21 03:20:28;;;;;;;;;;;0.60;53.30;;;;;;4952733;29;19914;-90
2023/01/21 03:22:56;;;;;;;;;;;0.60;53.00;;;;;;4951155;29;19925;-94
2023/01/21 03:25:23;;;;;;;;;;;0.60;52.70;;;;;;4948431;29;19911;-89
2023/01/21 03:27:49;;;;;;;;;;;0.60;52.50;;;;;;4948898;29;19923;-90
2023/01/21 03:30:16;;;;;;;;;;;0.60;52.30;;;;;;4933600;29;19953;-89
2023/01/21 03:32:44;;;;;;;;;;;0.50;52.10;;;;;;4936531;29;19907;-93
2023/01/21 03:35:11;;;;;;;;;;;0.50;52.10;;;;;;4933548;29;19911;-89
2023/01/21 03:37:40;;;;;;;;;;;0.40;52.40;;;;;;4938098;29;19974;-89
2023/01/21 03:40:17;;;;;;;;;;;0.50;53.20;;;;;;4933380;29;19973;-89
2023/01/21 03:42:44;;;;;;;;;;;0.50;54.20;;;;;;4933348;29;20009;-89
2023/01/21 03:45:10;;;;;;;;;;;0.70;55.40;;;;;;4885010;29;1854721;-89
2023/01/21 03:47:36;;;;;;;;;;;0.90;56.50;;;;;;4935378;29;19922;-90
2023/01/21 03:50:04;;;;;;;;;;;1.20;57.00;;;;;;4934589;29;19970;-90
2023/01/21 03:52:29;;;;;;;;;;;1.40;57.30;;;;;;4949550;29;20321;-89
2023/01/21 03:54:55;;;;;;;;;;;1.70;57.60;;;;;;4948706;29;19923;-89
2023/01/21 03:57:21;;;;;;;;;;;1.90;57.80;;;;;;4950814;28;19973;-90
2023/01/21 03:59:46;;;;;;;;;;;2.10;57.80;;;;;;4951305;29;20362;-90
2023/01/21 04:02:12;;;;;;;;;;;2.30;57.80;;;;;;4950705;29;19919;-89
2023/01/21 04:04:38;;;;;;;;;;;2.50;58.00;;;;;;4935388;29;19911;-89
2023/01/21 04:07:03;;;;;;;;;;;2.70;58.00;;;;;;4951074;29;20327;-93
2023/01/21 04:09:29;;;;;;;;;;;2.80;58.00;;;;;;4953225;29;19925;-90
2023/01/21 04:11:55;;;;;;;;;;;3.00;57.90;;;;;;4933606;29;20014;-89
2023/01/21 04:14:20;;;;;;;;;;;3.20;57.80;;;;;;4935335;29;20010;-88
2023/01/21 04:16:46;;;;;;;;;;;3.30;57.80;;;;;;4933501;29;19947;-92
2023/01/21 04:19:12;;;;;;;;;;;3.40;57.70;;;;;;4936244;29;19910;-88
2023/01/21 04:21:38;;;;;;;;;;;3.50;57.70;;;;;;4937593;29;20017;-90
2023/01/21 04:24:03;;;;;;;;;;;3.70;57.60;;;;;;4943808;29;20331;-90
2023/01/21 04:26:29;;;;;;;;;;;3.70;57.60;;;;;;4955613;28;19918;-89
2023/01/21 04:28:55;;;;;;;;;;;3.80;57.60;;;;;;4952286;29;19918;-93
2023/01/21 04:31:20;;;;;;;;;;;3.90;57.70;;;;;;4953091;28;19977;-89
2023/01/21 04:33:46;;;;;;;;;;;4.00;57.70;;;;;;4953634;29;19914;-88
2023/01/21 04:36:12;;;;;;;;;;;4.10;57.70;;;;;;4952351;29;19911;-90
2023/01/21 04:38:38;;;;;;;;;;;4.20;57.70;;;;;;4952547;29;19929;-91
2023/01/21 04:41:03;;;;;;;;;;;4.30;57.70;;;;;;4952131;29;19915;-89
2023/01/21 04:43:29;;;;;;;;;;;4.30;57.70;;;;;;4953526;29;20325;-92
2023/01/21 04:45:55;;;;;;;;;;;4.40;57.70;;;;;;4956148;28;19918;-89
2023/01/21 04:48:22;;;;;;;;;;;4.50;57.70;;;;;;4953702;28;19922;-89
2023/01/21 04:50:48;;;;;;;;;;;4.50;57.80;;;;;;4952386;28;20366;-89
2023/01/21 04:53:14;;;;;;;;;;;4.60;57.80;;;;;;4951799;29;19914;-93
2023/01/21 04:55:39;;;;;;;;;;;4.70;57.70;;;;;;4953507;29;19925;-90
2023/01/21 04:58:05;;;;;;;;;;;4.70;57.80;;;;;;4953267;29;19941;-91
2023/01/21 05:00:30;;;;;;;;;;;4.70;57.90;;;;;;4952847;28;20425;-90
2023/01/21 05:02:56;;;;;;;;;;;4.80;57.90;;;;;;4951956;28;19982;-90
2023/01/21 05:05:22;;;;;;;;;;;4.90;57.90;;;;;;4952226;29;20009;-90
2023/01/21 05:07:50;;;;;;;;;;;5.00;57.90;;;;;;4952776;29;20317;-90
2023/01/21 05:10:16;;;;;;;;;;;5.00;57.80;;;;;;4953486;28;19970;-89
2023/01/21 05:12:42;;;;;;;;;;;5.00;57.90;;;;;;4951523;29;19956;-93
2023/01/21 05:15:08;;;;;;;;;;;5.10;57.90;;;;;;4950758;29;20394;-89
2023/01/21 05:17:33;;;;;;;;;;;5.20;57.90;;;;;;4953853;29;19918;-90
2023/01/21 05:19:59;;;;;;;;;;;5.20;57.90;;;;;;4952309;29;20005;-90
2023/01/21 05:22:25;;;;;;;;;;;5.20;57.80;;;;;;4954940;29;20397;-89
2023/01/21 05:24:50;;;;;;;;;;;5.30;57.90;;;;;;4936152;28;20013;-88
2023/01/21 05:27:16;;;;;;;;;;;5.30;57.90;;;;;;4934413;29;19950;-90
2023/01/21 05:29:43;;;;;;;;;;;5.30;57.90;;;;;;4948509;29;19930;-93
2023/01/21 05:32:08;;;;;;;;;;;5.40;58.00;;;;;;4947752;29;19914;-89
2023/01/21 05:34:34;;;;;;;;;;;5.40;58.00;;;;;;4936666;29;20662;-89
2023/01/21 05:37:00;;;;;;;;;;;5.50;58.00;;;;;;4937573;29;19918;-90
2023/01/21 05:39:28;;;;;;;;;;;5.50;58.00;;;;;;4936703;29;19926;-91
2023/01/21 05:41:54;;;;;;;;;;;5.50;58.10;;;;;;4935657;29;19919;-90
2023/01/21 05:44:19;;;;;;;;;;;5.50;58.10;;;;;;4935637;29;19930;-93
2023/01/21 05:46:45;;;;;;;;;;;5.50;58.30;;;;;;4936101;29;19931;-89
2023/01/21 05:49:11;;;;;;;;;;;5.50;58.30;;;;;;4936613;29;20167;-93
2023/01/21 05:51:36;;;;;;;;;;;5.50;58.30;;;;;;4935696;29;20052;-90
2023/01/21 05:54:05;;;;;;;;;;;5.60;58.40;;;;;;4936660;29;19917;-91
2023/01/21 05:56:31;;;;;;;;;;;5.70;58.50;;;;;;4935828;29;19925;-89
2023/01/21 05:58:57;;;;;;;;;;;5.70;58.50;;;;;;4938638;29;19911;-88
2023/01/21 06:01:22;;;;;;;;;;;5.70;58.40;;;;;;4950506;29;19919;-90
2023/01/21 06:03:48;;;;;;;;;;;5.70;58.50;;;;;;4935892;29;19927;-93
2023/01/21 06:06:14;;;;;;;;;;;5.70;58.50;;;;;;4952719;29;19926;-90
2023/01/21 06:08:39;;;;;;;;;;;5.80;58.50;;;;;;4950846;29;19910;-92
2023/01/21 06:11:07;;;;;;;;;;;5.80;58.60;;;;;;4952565;29;20622;-89
2023/01/21 06:13:36;;;;;;;;;;;5.80;58.60;;;;;;4934674;29;19920;-90
2023/01/21 06:16:02;;;;;;;;;;;5.90;58.60;;;;;;4951760;29;20259;-89
2023/01/21 06:18:29;;;;;;;;;;;5.90;58.60;;;;;;4938924;29;19914;-92
2023/01/21 06:20:57;;;;;;;;;;;5.90;58.60;;;;;;4953015;29;19927;-89
2023/01/21 06:23:22;;;;;;;;;;;6.00;58.60;;;;;;4940988;29;20394;-89
2023/01/21 06:25:48;;;;;;;;;;;6.00;58.50;;;;;;4954618;29;19997;-89
2023/01/21 06:28:14;;;;;;;;;;;6.00;58.50;;;;;;4953878;29;20344;-93
2023/01/21 06:30:39;;;;;;;;;;;6.00;58.50;;;;;;4967606;28;19926;-90
2023/01/21 06:33:05;;;;;;;;;;;6.10;58.50;;;;;;4959176;29;19942;-93
2023/01/21 06:35:31;;;;;;;;;;;6.10;58.50;;;;;;4955603;29;19976;-90
2023/01/21 06:37:57;;;;;;;;;;;6.00;58.50;;;;;;4955405;28;19919;-90
2023/01/21 06:40:22;;;;;;;;;;;6.10;58.50;;;;;;4953452;29;19914;-90
2023/01/21 06:42:48;;;;;;;;;;;6.00;58.50;;;;;;4954281;29;19972;-91
2023/01/21 06:45:14;;;;;;;;;;;6.00;58.60;;;;;;4952814;28;19921;-90
2023/01/21 06:47:43;;;;;;;;;;;6.10;58.70;;;;;;4953596;28;19918;-91
2023/01/21 06:50:13;;;;;;;;;;;6.10;58.70;;;;;;4955123;29;20374;-90
2023/01/21 06:52:40;;;;;;;;;;;6.10;58.80;;;;;;4955759;28;20350;-94
2023/01/21 06:55:06;;;;;;;;;;;6.10;58.80;;;;;;4957197;29;19921;-92
2023/01/21 06:57:32;;;;;;;;;;;6.10;58.80;;;;;;4953700;29;19922;-89
2023/01/21 07:00:00;;;;;;;;;;;6.20;58.70;;;;;;4956844;29;20030;-92
2023/01/21 07:02:26;;;;;;;;;;;6.20;58.70;;;;;;4953771;29;19923;-93
2023/01/21 07:04:51;;;;;;;;;;;6.20;58.70;;;;;;4955027;28;19957;-90
2023/01/21 07:07:17;;;;;;;;;;;6.20;58.80;;;;;;4954051;29;19986;-91
2023/01/21 07:09:44;;;;;;;;;;;6.20;58.70;;;;;;4954853;29;20695;-90
2023/01/21 07:12:09;;;;;;;;;;;6.30;58.80;;;;;;4954432;28;20417;-91
2023/01/21 07:14:35;;;;;;;;;;;6.30;58.70;;;;;;4955381;29;19918;-90
2023/01/21 07:17:03;;;;;;;;;;;6.20;58.70;;;;;;4953236;29;19926;-90
2023/01/21 07:19:29;;;;;;;;;;;6.30;58.70;;;;;;4953489;28;20001;-89
2023/01/21 07:21:57;;;;;;;;;;;6.30;58.80;;;;;;4954056;28;19957;-91
2023/01/21 07:24:23;;;;;;;;;;;6.30;58.80;;;;;;4942209;28;20416;-89
2023/01/21 07:26:50;;;;;;;;;;;6.30;58.80;;;;;;4937132;29;19914;-90
2023/01/21 07:29:15;;;;;;;;;;;6.30;58.80;;;;;;4935644;29;19927;-88
2023/01/21 07:31:41;;;;;;;;;;;6.30;58.80;;;;;;4950671;29;20358;-90
2023/01/21 07:34:07;;;;;;;;;;;6.30;58.90;;;;;;4933049;29;19921;-93
2023/01/21 07:36:33;;;;;;;;;;;6.30;58.80;;;;;;4950912;29;19954;-89
2023/01/21 07:39:01;;;;;;;;;;;6.30;58.90;;;;;;4935074;29;19911;-89
2023/01/21 07:41:27;;;;;;;;;;;6.40;59.00;;;;;;4952671;29;19919;-90
2023/01/21 07:43:54;;;;;;;;;;;6.40;58.90;;;;;;4949402;29;19958;-91
2023/01/21 07:46:21;;;;;;;;;;;6.40;58.90;;;;;;4935661;29;19946;-90
2023/01/21 07:48:47;;;;;;;;;;;6.50;58.90;;;;;;4955094;29;19898;-92
2023/01/21 07:51:14;;;;;;;;;;;6.40;58.90;;;;;;4939539;29;19946;-90
2023/01/21 07:53:39;;;;;;;;;;;6.40;58.80;;;;;;4934850;29;20266;-91
2023/01/21 07:56:06;;;;;;;;;;;6.40;58.90;;;;;;4933981;29;19969;-90
2023/01/21 07:58:32;;;;;;;;;;;6.50;58.90;;;;;;4950107;28;19918;-90
2023/01/21 08:00:57;;;;;;;;;;;6.50;58.90;;;;;;4949261;29;19966;-90
2023/01/21 08:03:24;;;;;;;;;;;6.50;58.90;;;;;;4935800;29;19978;-89
2023/01/21 08:05:50;;;;;;;;;;;6.50;58.90;;;;;;4934710;29;20798;-90
2023/01/21 08:08:16;;;;;;;;;;;6.60;58.90;;;;;;4950209;29;19918;-89
2023/01/21 08:10:43;;;;;;;;;;;6.60;59.00;;;;;;4936022;29;20013;-90
2023/01/21 08:13:09;;;;;;;;;;;6.70;59.00;;;;;;4937693;29;19925;-90
2023/01/21 08:15:34;;;;;;;;;;;6.70;58.90;;;;;;4934794;29;19910;-94
2023/01/21 08:18:00;;;;;;;;;;;6.70;58.80;;;;;;4949563;29;19919;-91
2023/01/21 08:20:26;;;;;;;;;;;6.70;58.70;;;;;;4935149;29;20006;-90
2023/01/21 08:22:52;;;;;;;;;;;6.70;58.80;;;;;;4940416;29;20438;-90
2023/01/21 08:25:17;;;;;;;;;;;6.70;58.80;;;;;;4957358;29;19906;-90
2023/01/21 08:27:43;;;;;;;;;;;6.70;58.80;;;;;;4956160;28;19922;-91
2023/01/21 08:30:09;;;;;;;;;;;6.70;58.80;;;;;;4958657;28;19930;-91
2023/01/21 08:32:37;;;;;;;;;;;6.70;58.90;;;;;;4956233;28;20279;-91
2023/01/21 08:35:03;;;;;;;;;;;6.70;59.00;;;;;;4966873;28;19910;-90
2023/01/21 08:37:29;;;;;;;;;;;6.80;59.00;;;;;;4973344;28;19926;-91
2023/01/21 08:39:57;;;;;;;;;;;6.80;59.00;;;;;;4958974;28;20277;-91
2023/01/21 08:42:22;;;;;;;;;;;6.80;59.00;;;;;;4955513;28;19962;-88
2023/01/21 08:44:49;;;;;;;;;;;6.90;59.10;;;;;;4957159;28;19914;-91
2023/01/21 08:47:16;;;;;;;;;;;6.90;59.10;;;;;;4964805;28;20190;-91
2023/01/21 08:49:42;;;;;;;;;;;7.00;59.10;;;;;;4968876;28;19919;-91
2023/01/21 08:52:09;;;;;;;;;;;7.00;59.00;;;;;;4957801;28;20021;-89
2023/01/21 08:54:34;;;;;;;;;;;7.00;59.00;;;;;;4954564;28;20001;-93
2023/01/21 08:57:00;;;;;;;;;;;7.10;59.10;;;;;;4963403;28;19981;-93
2023/01/21 08:59:27;;;;;;;;;;;7.10;59.00;;;;;;4969705;28;19914;-89
2023/01/21 09:01:53;;;;;;;;;;;7.20;59.00;;;;;;4954952;28;19923;-90
2023/01/21 09:04:19;;;;;;;;;;;7.20;58.90;;;;;;4954800;28;19910;-91
2023/01/21 09:06:45;;;;;;;;;;;7.20;58.90;;;;;;4961510;28;19938;-90
2023/01/21 09:09:11;;;;;;;;;;;7.20;58.90;;;;;;4954998;28;19918;-88
2023/01/21 09:11:37;;;;;;;;;;;7.30;58.80;;;;;;4963406;28;19996;-90
2023/01/21 09:14:03;;;;;;;;;;;7.30;58.80;;;;;;4963300;28;19911;-89
2023/01/21 09:16:31;;;;;;;;;;;7.30;58.80;;;;;;4960075;28;19918;-92
2023/01/21 09:18:57;;;;;;;;;;;7.40;58.70;;;;;;4959798;28;19915;-93
2023/01/21 09:21:28;;;;;;;;;;;7.40;58.70;;;;;;4957863;28;19918;-93
2023/01/21 09:23:54;;;;;;;;;;;7.40;58.70;;;;;;4953583;28;19920;-91
2023/01/21 09:26:20;;;;;;;;;;;7.50;58.60;;;;;;4958367;28;20047;-91
2023/01/21 09:28:50;;;;;;;;;;;7.50;58.50;;;;;;4973822;28;19928;-90
2023/01/21 09:31:17;;;;;;;;;;;7.50;58.40;;;;;;4979537;28;19977;-89
2023/01/21 09:33:44;;;;;;;;;;;7.50;58.40;;;;;;4981604;28;19910;-93
2023/01/21 09:36:13;;;;;;;;;;;7.50;58.40;;;;;;4977542;28;19917;-90
2023/01/21 09:38:42;;;;;;;;;;;7.60;58.40;;;;;;4980227;28;20162;-90
2023/01/21 09:41:17;;;;;;;;;;;7.60;58.30;;;;;;4978849;28;19918;-91
2023/01/21 09:43:48;;;;;;;;;;;7.60;58.30;;;;;;4976570;28;20507;-90
2023/01/21 09:46:19;;;;;;;;;;;7.60;58.40;;;;;;4979611;28;19930;-90
2023/01/21 09:48:46;;;;;;;;;;;7.60;58.40;;;;;;4973886;28;20373;-92
2023/01/21 09:51:16;;;;;;;;;;;7.60;58.40;;;;;;4978951;28;19918;-93
2023/01/21 09:53:46;;;;;;;;;;;7.60;58.70;;;;;;4977039;28;20391;-90
2023/01/21 09:56:20;;;;;;;;;;;7.70;58.70;;;;;;4976638;28;20267;-90
2023/01/21 09:58:53;;;;;;;;;;;7.70;58.60;;;;;;4972360;28;19956;-89
2023/01/21 10:01:30;;;;;;;;;;;7.70;58.50;;;;;;4972381;28;19932;-90
2023/01/21 10:04:13;;;;;;;;;;;7.70;58.70;;;;;;4974252;28;20396;-91
2023/01/21 10:06:42;;;;;;;;;;;7.80;58.80;;;;;;4975214;28;20325;-88
2023/01/21 10:09:13;;;;;;;;;;;7.80;58.90;;;;;;4982276;28;19960;-91
2023/01/21 10:11:45;;;;;;;;;;;7.80;59.00;;;;;;4974144;28;20429;-89
2023/01/21 10:14:29;;;;;;;;;;;7.80;59.00;;;;;;4973701;28;19914;-89
2023/01/21 10:17:01;;;;;;;;;;;7.90;59.20;;;;;;4983102;28;20040;-90
2023/01/21 10:19:49;;;;;;;;;;;8.00;59.20;;;;;;4973284;28;19914;-94
2023/01/21 10:22:17;;;;;;;;;;;8.10;59.10;;;;;;4957840;28;19922;-89
2023/01/21 10:24:52;;;;;;;;;;;8.00;59.20;;;;;;4955202;28;19914;-91
2023/01/21 10:27:19;;;;;;;;;;;8.10;59.10;;;;;;4957091;28;19942;-92
2023/01/21 10:29:47;;;;;;;;;;;8.10;59.10;;;;;;4957836;28;19937;-89
2023/01/21 10:32:17;;;;;;;;;;;8.20;59.20;;;;;;4957128;28;20010;-91
2023/01/21 10:34:53;;;;;;;;;;;8.20;59.00;;;;;;4959847;28;20013;-90
2023/01/21 10:37:18;;;;;;;;;;;8.20;59.20;;;;;;4956764;29;19919;-91
2023/01/21 10:40:04;;;;;;;;;;;8.20;59.20;;;;;;4952849;29;19914;-90
2023/01/21 10:42:34;;;;;;;;;;;8.30;59.40;;;;;;4928655;28;20017;-89
2023/01/21 10:45:07;;;;;;;;;;;8.30;59.30;;;;;;4952446;29;20282;-90
2023/01/21 10:47:41;;;;;;;;;;;8.30;59.20;;;;;;4965448;29;19929;-92
2023/01/21 10:50:15;;;;;;;;;;;8.20;59.60;;;;;;4958974;29;20394;-89
2023/01/21 10:52:45;;;;;;;;;;;8.20;59.40;;;;;;4948949;29;20009;-90
2023/01/21 10:55:25;;;;;;;;;;;8.20;59.40;;;;;;4936254;29;19914;-90
2023/01/21 10:58:01;;;;;;;;;;;8.20;59.70;;;;;;4948411;28;19918;-90
2023/01/21 11:00:28;;;;;;;;;;;8.20;59.40;;;;;;4945056;29;19928;-94
2023/01/21 11:03:10;;;;;;;;;;;8.20;59.80;;;;;;4949151;28;20490;-90
2023/01/21 11:05:37;;;;;;;;;;;8.30;59.30;;;;;;4939558;29;19929;-91
2023/01/21 11:08:03;;;;;;;;;;;8.20;59.50;;;;;;4953626;29;19973;-91
2023/01/21 11:10:38;;;;;;;;;;;8.30;59.70;;;;;;4946673;28;19926;-92
2023/01/21 11:13:08;;;;;;;;;;;8.30;59.90;;;;;;4951486;28;19938;-89
2023/01/21 11:15:43;;;;;;;;;;;8.40;60.00;;;;;;4951111;29;20235;-88
2023/01/21 11:18:26;;;;;;;;;;;8.40;59.80;;;;;;4955295;29;19958;-90
2023/01/21 11:20:54;;;;;;;;;;;8.50;59.90;;;;;;4948460;28;19950;-89
2023/01/21 11:23:34;;;;;;;;;;;8.50;59.60;;;;;;4941589;29;19931;-93
2023/01/21 11:26:00;;;;;;;;;;;8.60;59.40;;;;;;4951002;29;19997;-91
2023/01/21 11:28:28;;;;;;;;;;;8.70;60.00;;;;;;4941617;29;19922;-91
2023/01/21 11:31:11;;;;;;;;;;;8.80;59.20;;;;;;4956516;29;19990;-89
2023/01/21 11:33:40;;;;;;;;;;;8.80;59.50;;;;;;4949382;28;20366;-88
2023/01/21 11:36:16;;;;;;;;;;;8.80;59.30;;;;;;4939395;29;19931;-93
2023/01/21 11:38:42;;;;;;;;;;;8.80;59.20;;;;;;4945182;29;20425;-90
2023/01/21 11:41:19;;;;;;;;;;;8.90;58.80;;;;;;4957589;28;19945;-90
2023/01/21 11:43:47;;;;;;;;;;;8.90;59.10;;;;;;4955543;29;19938;-93
2023/01/21 11:46:20;;;;;;;;;;;9.00;59.30;;;;;;4961766;28;19927;-90
2023/01/21 11:48:49;;;;;;;;;;;9.00;59.20;;;;;;4947736;29;20015;-93
2023/01/21 11:51:16;;;;;;;;;;;9.10;59.00;;;;;;4940220;29;19935;-89
2023/01/21 11:53:42;;;;;;;;;;;9.10;58.40;;;;;;4952230;29;19915;-93
2023/01/21 11:56:08;;;;;;;;;;;9.20;58.50;;;;;;4949840;28;19922;-94
2023/01/21 11:58:35;;;;;;;;;;;9.20;58.10;;;;;;4957912;28;19926;-90
2023/01/21 12:01:03;;;;;;;;;;;9.20;58.30;;;;;;4942652;28;20281;-92
2023/01/21 12:03:43;;;;;;;;;;;9.20;57.80;;;;;;4949390;29;19918;-89
2023/01/21 12:06:15;;;;;;;;;;;9.20;57.90;;;;;;4939732;29;20010;-93
2023/01/21 12:08:41;;;;;;;;;;;9.20;58.00;;;;;;4940749;29;19919;-89
2023/01/21 12:11:17;;;;;;;;;;;9.30;58.40;;;;;;4940743;29;20000;-89
2023/01/21 12:13:58;;;;;;;;;;;9.40;57.80;;;;;;4950249;29;19961;-91
2023/01/21 12:16:27;;;;;;;;;;;9.40;57.50;;;;;;4954783;29;19922;-92
2023/01/21 12:19:15;;;;;;;;;;;9.40;56.80;;;;;;4959258;29;19914;-91
2023/01/21 12:21:53;;;;;;;;;;;9.40;57.20;;;;;;4940581;29;19969;-90
2023/01/21 12:24:37;;;;;;;;;;;9.40;57.60;;;;;;4958003;29;20258;-90
2023/01/21 12:27:11;;;;;;;;;;;9.30;57.40;;;;;;4948274;29;19919;-93
2023/01/21 12:29:44;;;;;;;;;;;9.30;57.70;;;;;;4952960;29;20033;-90
2023/01/21 12:32:28;;;;;;;;;;;9.40;57.30;;;;;;4943390;29;19929;-88
2023/01/21 12:35:02;;;;;;;;;;;9.30;57.40;;;;;;4958794;28;19942;-94
2023/01/21 12:37:30;;;;;;;;;;;9.30;56.50;;;;;;4947865;29;19948;-89
2023/01/21 12:39:57;;;;;;;;;;;9.30;57.30;;;;;;4947385;28;19915;-89
2023/01/21 12:42:30;;;;;;;;;;;9.30;56.20;;;;;;4935274;29;19929;-89
2023/01/21 12:44:59;;;;;;;;;;;9.20;57.30;;;;;;4954916;28;19957;-93
2023/01/21 12:47:28;;;;;;;;;;;9.20;55.70;;;;;;4945562;28;19923;-89
2023/01/21 12:49:54;;;;;;;;;;;9.20;56.40;;;;;;4939058;29;20315;-88
2023/01/21 12:52:28;;;;;;;;;;;9.20;57.30;;;;;;4948292;29;19970;-89
2023/01/21 12:55:00;;;;;;;;;;;9.30;56.80;;;;;;4955228;29;19919;-94
2023/01/21 12:57:42;;;;;;;;;;;9.30;56.20;;;;;;4948986;29;20024;-89
2023/01/21 13:00:30;;;;;;;;;;;9.30;56.20;;;;;;4947555;29;19915;-89
2023/01/21 13:02:59;;;;;;;;;;;9.30;57.10;;;;;;4956253;29;19930;-90
2023/01/21 13:05:31;;;;;;;;;;;9.30;56.90;;;;;;4953286;29;19923;-94
2023/01/21 13:08:17;;;;;;;;;;;9.30;57.50;;;;;;4951856;29;19923;-89
2023/01/21 13:10:48;;;;;;;;;;;9.30;56.70;;;;;;4957470;28;19922;-88
2023/01/21 13:13:21;;;;;;;;;;;9.40;56.80;;;;;;4956287;28;19934;-90
2023/01/21 13:15:51;;;;;;;;;;;9.30;57.10;;;;;;4942483;29;19919;-94
2023/01/21 13:18:37;;;;;;;;;;;9.40;56.90;;;;;;4957789;29;19919;-90
2023/01/21 13:21:08;;;;;;;;;;;9.40;57.20;;;;;;4949651;29;20405;-90
2023/01/21 13:24:00;;;;;;;;;;;9.50;57.10;;;;;;4953304;29;19998;-89
2023/01/21 13:26:45;;;;;;;;;;;9.50;56.30;;;;;;4941870;29;19922;-87
2023/01/21 13:29:16;;;;;;;;;;;9.50;56.30;;;;;;4940022;29;19986;-89
2023/01/21 13:31:53;;;;;;;;;;;9.50;56.60;;;;;;4936618;29;19918;-89
2023/01/21 13:34:28;;;;;;;;;;;9.50;56.80;;;;;;4939491;29;19923;-89
2023/01/21 13:37:00;;;;;;;;;;;9.50;56.10;;;;;;4955140;29;19918;-89
2023/01/21 13:39:46;;;;;;;;;;;9.50;56.40;;;;;;4962333;29;19923;-94
2023/01/21 13:42:20;;;;;;;;;;;9.40;56.80;;;;;;4948930;29;19962;-90
2023/01/21 13:44:49;;;;;;;;;;;9.50;57.40;;;;;;4949239;29;19922;-89
2023/01/21 13:47:25;;;;;;;;;;;9.50;56.60;;;;;;4952719;28;19930;-90
2023/01/21 13:49:51;;;;;;;;;;;9.50;56.70;;;;;;4951685;29;19922;-89
2023/01/21 13:52:42;;;;;;;;;;;9.50;57.00;;;;;;4951224;29;19918;-89
2023/01/21 13:55:07;;;;;;;;;;;9.50;57.60;;;;;;4953917;29;19914;-94
2023/01/21 13:57:42;;;;;;;;;;;9.50;56.10;;;;;;4955216;28;19922;-89
2023/01/21 14:00:12;;;;;;;;;;;9.50;55.60;;;;;;4954796;28;19914;-90
2023/01/21 14:02:56;;;;;;;;;;;9.40;55.40;;;;;;4946133;29;20357;-88
2023/01/21 14:05:29;;;;;;;;;;;9.30;55.50;;;;;;4937037;29;19926;-96
2023/01/21 14:07:59;;;;;;;;;;;9.30;55.40;;;;;;4950442;29;20036;-88
2023/01/21 14:10:24;;;;;;;;;;;9.30;55.30;;;;;;4953141;29;19946;-93
2023/01/21 14:12:59;;;;;;;;;;;9.30;55.30;;;;;;4941841;29;19923;-94
2023/01/21 14:15:38;;;;;;;;;;;9.20;55.10;;;;;;4951753;29;19915;-89
2023/01/21 14:18:12;;;;;;;;;;;9.20;55.50;;;;;;4955958;29;19922;-89
2023/01/21 14:20:53;;;;;;;;;;;9.20;54.60;;;;;;4951788;29;19919;-89
2023/01/21 14:23:34;;;;;;;;;;;9.10;54.10;;;;;;4950771;29;19950;-94
2023/01/21 14:26:16;;;;;;;;;;;9.00;54.60;;;;;;4941721;29;20590;-89
2023/01/21 14:28:52;;;;;;;;;;;8.90;54.80;;;;;;4948368;29;19926;-89
2023/01/21 14:31:20;;;;;;;;;;;8.90;55.30;;;;;;4952660;29;19989;-96
2023/01/21 14:33:56;;;;;;;;;;;8.90;55.60;;;;;;4952980;29;20022;-91
2023/01/21 14:36:27;;;;;;;;;;;8.90;55.20;;;;;;4933009;29;19966;-90
2023/01/21 14:38:53;;;;;;;;;;;8.80;55.00;;;;;;4954395;29;19919;-89
2023/01/21 14:41:19;;;;;;;;;;;8.70;55.40;;;;;;4936952;29;20124;-90
2023/01/21 14:43:46;;;;;;;;;;;8.70;55.70;;;;;;4938819;29;19945;-90
2023/01/21 14:46:25;;;;;;;;;;;8.70;55.80;;;;;;4937095;29;20063;-89
2023/01/21 14:49:07;;;;;;;;;;;8.70;55.80;;;;;;4938613;29;20006;-89